sensor_id;sensor_type;location;lat;lon;timestamp;pressure;altitude;pressure_sealevel;temperature;humidity
71948;BME280;63257;55.082;38.772;2023-02-21T00:00:17;97644.06;;;-7.85;62.87
71948;BME280;63257;55.082;38.772;2023-02-21T00:03:01;97648.31;;;-7.82;62.43
71948;BME280;63257;55.082;38.772;2023-02-21T00:05:45;97644.13;;;-7.88;62.80
71948;BME280;63257;55.082;38.772;2023-02-21T00:08:29;97650.34;;;-8.03;62.88
71948;BME280;63257;55.082;38.772;2023-02-21T00:11:13;97640.09;;;-8.03;62.85
71948;BME280;63257;55.082;38.772;2023-02-21T00:13:58;97640.69;;;-7.86;62.72
71948;BME280;63257;55.082;38.772;2023-02-21T00:16:42;97635.53;;;-7.84;62.42
71948;BME280;63257;55.082;38.772;2023-02-21T00:19:26;97623.63;;;-7.88;62.26
71948;BME280;63257;55.082;38.772;2023-02-21T00:22:10;97633.66;;;-7.74;62.43
71948;BME280;63257;55.082;38.772;2023-02-21T00:24:55;97641.41;;;-7.77;62.31
71948;BME280;63257;55.082;38.772;2023-02-21T00:27:39;97627.00;;;-7.86;62.26
71948;BME280;63257;55.082;38.772;2023-02-21T00:30:24;97634.66;;;-7.85;62.50
71948;BME280;63257;55.082;38.772;2023-02-21T00:33:08;97639.75;;;-7.81;62.04
71948;BME280;63257;55.082;38.772;2023-02-21T00:35:52;97633.78;;;-7.84;62.41
71948;BME280;63257;55.082;38.772;2023-02-21T00:38:36;97634.38;;;-7.66;62.08
71948;BME280;63257;55.082;38.772;2023-02-21T00:41:24;97631.97;;;-7.77;62.06
71948;BME280;63257;55.082;38.772;2023-02-21T00:44:08;97599.75;;;-7.90;61.83
71948;BME280;63257;55.082;38.772;2023-02-21T00:46:53;97609.16;;;-7.91;61.97
71948;BME280;63257;55.082;38.772;2023-02-21T00:49:37;97616.22;;;-8.05;62.63
71948;BME280;63257;55.082;38.772;2023-02-21T00:52:21;97606.19;;;-8.19;62.87
71948;BME280;63257;55.082;38.772;2023-02-21T00:55:05;97606.28;;;-8.24;63.35
71948;BME280;63257;55.082;38.772;2023-02-21T00:57:50;97596.91;;;-8.25;63.09
71948;BME280;63257;55.082;38.772;2023-02-21T01:00:34;97595.41;;;-8.40;63.47
71948;BME280;63257;55.082;38.772;2023-02-21T01:03:18;97597.03;;;-8.32;63.93
71948;BME280;63257;55.082;38.772;2023-02-21T01:06:08;97584.25;;;-8.34;63.37
71948;BME280;63257;55.082;38.772;2023-02-21T01:08:52;97578.28;;;-8.35;63.86
71948;BME280;63257;55.082;38.772;2023-02-21T01:11:36;97582.53;;;-8.33;63.63
71948;BME280;63257;55.082;38.772;2023-02-21T01:14:20;97568.03;;;-8.33;63.83
71948;BME280;63257;55.082;38.772;2023-02-21T01:17:05;97580.94;;;-8.39;63.91
71948;BME280;63257;55.082;38.772;2023-02-21T01:19:49;97571.47;;;-8.36;63.26
71948;BME280;63257;55.082;38.772;2023-02-21T01:22:33;97576.56;;;-8.32;63.52
71948;BME280;63257;55.082;38.772;2023-02-21T01:25:19;97571.31;;;-8.25;63.64
71948;BME280;63257;55.082;38.772;2023-02-21T01:28:03;97543.44;;;-8.42;63.55
71948;BME280;63257;55.082;38.772;2023-02-21T01:30:49;97563.53;;;-8.19;62.86
71948;BME280;63257;55.082;38.772;2023-02-21T01:33:36;97556.06;;;-8.31;62.89
71948;BME280;63257;55.082;38.772;2023-02-21T01:36:20;97577.88;;;-8.08;62.92
71948;BME280;63257;55.082;38.772;2023-02-21T01:39:05;97562.41;;;-8.02;62.25
71948;BME280;63257;55.082;38.772;2023-02-21T01:41:49;97560.81;;;-8.08;61.87
71948;BME280;63257;55.082;38.772;2023-02-21T01:44:38;97570.91;;;-8.00;61.77
71948;BME280;63257;55.082;38.772;2023-02-21T01:47:23;97556.47;;;-8.04;62.03
71948;BME280;63257;55.082;38.772;2023-02-21T01:53:12;97554.13;;;-8.18;61.42
71948;BME280;63257;55.082;38.772;2023-02-21T01:55:59;97566.06;;;-8.17;61.77
71948;BME280;63257;55.082;38.772;2023-02-21T01:58:47;97570.16;;;-8.07;61.60
71948;BME280;63257;55.082;38.772;2023-02-21T02:01:42;97553.09;;;-8.06;61.29
71948;BME280;63257;55.082;38.772;2023-02-21T02:04:30;97556.81;;;-8.26;61.77
71948;BME280;63257;55.082;38.772;2023-02-21T02:07:15;97550.22;;;-8.39;61.64
71948;BME280;63257;55.082;38.772;2023-02-21T02:10:00;97541.81;;;-8.46;61.93
71948;BME280;63257;55.082;38.772;2023-02-21T02:18:16;97558.66;;;-8.32;62.01
71948;BME280;63257;55.082;38.772;2023-02-21T02:27:03;97543.19;;;-8.26;61.49
71948;BME280;63257;55.082;38.772;2023-02-21T02:35:55;97548.31;;;-8.26;61.85
71948;BME280;63257;55.082;38.772;2023-02-21T02:46:42;97548.41;;;-8.34;61.04
71948;BME280;63257;55.082;38.772;2023-02-21T02:49:18;97536.72;;;-8.46;61.62
71948;BME280;63257;55.082;38.772;2023-02-21T02:51:47;97548.50;;;-8.39;61.46
71948;BME280;63257;55.082;38.772;2023-02-21T02:54:13;97485.25;;;-8.82;61.64
71948;BME280;63257;55.082;38.772;2023-02-21T02:56:39;97542.69;;;-8.47;61.92
71948;BME280;63257;55.082;38.772;2023-02-21T02:59:12;97523.31;;;-8.63;62.08
71948;BME280;63257;55.082;38.772;2023-02-21T03:02:03;97531.00;;;-8.63;62.04
71948;BME280;63257;55.082;38.772;2023-02-21T03:07:35;97530.88;;;-8.54;62.36
71948;BME280;63257;55.082;38.772;2023-02-21T03:10:47;97517.19;;;-8.51;61.95
71948;BME280;63257;55.082;38.772;2023-02-21T03:16:25;97519.47;;;-8.91;62.48
71948;BME280;63257;55.082;38.772;2023-02-21T03:18:57;97518.69;;;-8.94;62.88
71948;BME280;63257;55.082;38.772;2023-02-21T03:21:30;97514.56;;;-9.06;63.47
71948;BME280;63257;55.082;38.772;2023-02-21T03:23:59;97494.84;;;-8.98;63.18
71948;BME280;63257;55.082;38.772;2023-02-21T03:26:31;97481.25;;;-9.01;63.02
71948;BME280;63257;55.082;38.772;2023-02-21T03:29:09;97514.28;;;-8.88;63.00
71948;BME280;63257;55.082;38.772;2023-02-21T03:31:44;97491.38;;;-8.92;62.64
71948;BME280;63257;55.082;38.772;2023-02-21T03:34:12;97511.19;;;-9.10;63.49
71948;BME280;63257;55.082;38.772;2023-02-21T03:36:39;97501.03;;;-9.13;63.82
71948;BME280;63257;55.082;38.772;2023-02-21T03:39:07;97494.31;;;-9.20;64.21
71948;BME280;63257;55.082;38.772;2023-02-21T03:41:33;97501.84;;;-9.12;63.58
71948;BME280;63257;55.082;38.772;2023-02-21T03:44:02;97503.00;;;-9.33;63.61
71948;BME280;63257;55.082;38.772;2023-02-21T03:46:28;97500.28;;;-9.21;64.02
71948;BME280;63257;55.082;38.772;2023-02-21T03:48:54;97508.03;;;-9.27;63.69
71948;BME280;63257;55.082;38.772;2023-02-21T03:51:25;97510.66;;;-9.33;64.31
71948;BME280;63257;55.082;38.772;2023-02-21T03:53:51;97505.63;;;-9.38;63.92
71948;BME280;63257;55.082;38.772;2023-02-21T03:56:19;97496.25;;;-9.38;63.82
71948;BME280;63257;55.082;38.772;2023-02-21T03:59:11;97501.28;;;-9.31;63.80
71948;BME280;63257;55.082;38.772;2023-02-21T04:01:37;97503.09;;;-9.40;63.96
71948;BME280;63257;55.082;38.772;2023-02-21T04:04:03;97480.28;;;-9.55;63.78
71948;BME280;63257;55.082;38.772;2023-02-21T04:06:29;97502.31;;;-9.45;63.84
71948;BME280;63257;55.082;38.772;2023-02-21T04:08:57;97499.66;;;-9.39;63.88
71948;BME280;63257;55.082;38.772;2023-02-21T04:11:24;97496.28;;;-9.41;63.83
71948;BME280;63257;55.082;38.772;2023-02-21T04:13:52;97494.53;;;-9.35;63.51
71948;BME280;63257;55.082;38.772;2023-02-21T04:16:18;97497.94;;;-9.36;63.50
71948;BME280;63257;55.082;38.772;2023-02-21T04:18:44;97475.00;;;-9.43;63.40
71948;BME280;63257;55.082;38.772;2023-02-21T04:21:16;97495.38;;;-9.36;63.78
71948;BME280;63257;55.082;38.772;2023-02-21T04:23:43;97497.13;;;-9.40;63.10
71948;BME280;63257;55.082;38.772;2023-02-21T04:26:09;97490.44;;;-9.49;64.25
71948;BME280;63257;55.082;38.772;2023-02-21T04:28:40;97499.84;;;-9.54;64.17
71948;BME280;63257;55.082;38.772;2023-02-21T04:31:07;97499.13;;;-9.64;64.42
71948;BME280;63257;55.082;38.772;2023-02-21T04:33:33;97509.09;;;-9.42;64.32
71948;BME280;63257;55.082;38.772;2023-02-21T04:35:59;97508.03;;;-9.27;63.75
71948;BME280;63257;55.082;38.772;2023-02-21T04:38:33;97508.03;;;-9.29;62.92
71948;BME280;63257;55.082;38.772;2023-02-21T04:40:58;97486.84;;;-9.34;62.55
71948;BME280;63257;55.082;38.772;2023-02-21T04:43:25;97501.09;;;-9.17;62.52
71948;BME280;63257;55.082;38.772;2023-02-21T04:45:51;97505.50;;;-9.30;63.04
71948;BME280;63257;55.082;38.772;2023-02-21T04:48:17;97503.78;;;-9.28;62.98
71948;BME280;63257;55.082;38.772;2023-02-21T04:50:43;97510.59;;;-9.29;62.63
71948;BME280;63257;55.082;38.772;2023-02-21T04:53:09;97505.47;;;-9.29;62.59
71948;BME280;63257;55.082;38.772;2023-02-21T04:55:35;97508.84;;;-9.24;62.07
71948;BME280;63257;55.082;38.772;2023-02-21T04:58:01;97510.25;;;-9.01;61.96
71948;BME280;63257;55.082;38.772;2023-02-21T05:00:26;97511.25;;;-9.13;62.07
71948;BME280;63257;55.082;38.772;2023-02-21T05:02:52;97506.91;;;-9.06;62.01
71948;BME280;63257;55.082;38.772;2023-02-21T05:05:18;97501.81;;;-9.08;62.51
71948;BME280;63257;55.082;38.772;2023-02-21T05:07:44;97518.06;;;-9.12;61.92
71948;BME280;63257;55.082;38.772;2023-02-21T05:10:10;97510.38;;;-9.10;62.30
71948;BME280;63257;55.082;38.772;2023-02-21T05:12:37;97513.91;;;-9.22;61.79
71948;BME280;63257;55.082;38.772;2023-02-21T05:15:05;97510.47;;;-9.18;62.17
71948;BME280;63257;55.082;38.772;2023-02-21T05:17:31;97506.88;;;-9.05;62.02
71948;BME280;63257;55.082;38.772;2023-02-21T05:19:58;97511.00;;;-8.96;61.24
71948;BME280;63257;55.082;38.772;2023-02-21T05:22:23;97512.69;;;-8.93;60.72
71948;BME280;63257;55.082;38.772;2023-02-21T05:24:49;97513.91;;;-9.22;61.75
71948;BME280;63257;55.082;38.772;2023-02-21T05:27:16;97511.44;;;-9.27;62.82
71948;BME280;63257;55.082;38.772;2023-02-21T05:29:48;97504.66;;;-9.29;62.80
71948;BME280;63257;55.082;38.772;2023-02-21T05:32:16;97485.97;;;-9.34;63.26
71948;BME280;63257;55.082;38.772;2023-02-21T05:34:42;97492.00;;;-9.39;63.03
71948;BME280;63257;55.082;38.772;2023-02-21T05:37:14;97516.56;;;-9.28;62.97
71948;BME280;63257;55.082;38.772;2023-02-21T05:39:41;97504.41;;;-9.12;62.50
71948;BME280;63257;55.082;38.772;2023-02-21T05:42:07;97511.19;;;-9.07;62.55
71948;BME280;63257;55.082;38.772;2023-02-21T05:44:34;97492.28;;;-8.96;62.08
71948;BME280;63257;55.082;38.772;2023-02-21T05:46:59;97498.09;;;-8.87;61.53
71948;BME280;63257;55.082;38.772;2023-02-21T05:49:27;97497.84;;;-8.71;61.18
71948;BME280;63257;55.082;38.772;2023-02-21T05:51:53;97485.38;;;-8.90;60.79
71948;BME280;63257;55.082;38.772;2023-02-21T05:54:20;97494.66;;;-8.84;61.24
71948;BME280;63257;55.082;38.772;2023-02-21T05:56:48;97452.13;;;-8.90;60.04
71948;BME280;63257;55.082;38.772;2023-02-21T05:59:15;97485.81;;;-8.64;60.53
71948;BME280;63257;55.082;38.772;2023-02-21T06:01:41;97491.84;;;-8.68;60.90
71948;BME280;63257;55.082;38.772;2023-02-21T06:04:08;97494.56;;;-8.76;59.86
71948;BME280;63257;55.082;38.772;2023-02-21T06:06:34;97489.25;;;-8.64;60.26
71948;BME280;63257;55.082;38.772;2023-02-21T06:09:02;97474.66;;;-8.59;59.01
71948;BME280;63257;55.082;38.772;2023-02-21T06:11:31;97491.84;;;-8.68;59.21
71948;BME280;63257;55.082;38.772;2023-02-21T06:14:04;97434.41;;;-9.02;59.74
71948;BME280;63257;55.082;38.772;2023-02-21T06:16:35;97494.28;;;-8.59;59.47
71948;BME280;63257;55.082;38.772;2023-02-21T06:19:02;97495.09;;;-8.57;59.00
71948;BME280;63257;55.082;38.772;2023-02-21T06:21:29;97494.13;;;-8.50;59.38
71948;BME280;63257;55.082;38.772;2023-02-21T06:23:55;97489.88;;;-8.51;58.70
71948;BME280;63257;55.082;38.772;2023-02-21T06:26:21;97481.63;;;-8.68;59.21
71948;BME280;63257;55.082;38.772;2023-02-21T06:28:48;97500.31;;;-8.63;58.61
71948;BME280;63257;55.082;38.772;2023-02-21T06:31:16;97490.47;;;-8.38;58.01
71948;BME280;63257;55.082;38.772;2023-02-21T06:33:42;97488.97;;;-8.47;57.75
71948;BME280;63257;55.082;38.772;2023-02-21T06:36:11;97487.63;;;-8.70;58.39
71948;BME280;63257;55.082;38.772;2023-02-21T06:38:37;97493.13;;;-8.43;57.83
71948;BME280;63257;55.082;38.772;2023-02-21T06:41:07;97487.06;;;-8.37;57.51
71948;BME280;63257;55.082;38.772;2023-02-21T06:43:35;97484.44;;;-8.34;57.68
71948;BME280;63257;55.082;38.772;2023-02-21T06:46:02;97497.47;;;-8.45;56.63
71948;BME280;63257;55.082;38.772;2023-02-21T06:48:29;97480.56;;;-8.55;56.60
71948;BME280;63257;55.082;38.772;2023-02-21T06:50:55;97497.63;;;-8.56;57.25
71948;BME280;63257;55.082;38.772;2023-02-21T06:53:21;97490.81;;;-8.57;57.37
71948;BME280;63257;55.082;38.772;2023-02-21T06:55:47;97493.91;;;-8.38;57.47
71948;BME280;63257;55.082;38.772;2023-02-21T06:58:16;97488.84;;;-8.41;56.19
71948;BME280;63257;55.082;38.772;2023-02-21T07:00:42;97489.34;;;-8.20;56.33
71948;BME280;63257;55.082;38.772;2023-02-21T07:03:07;97473.50;;;-8.42;55.95
71948;BME280;63257;55.082;38.772;2023-02-21T07:05:33;97480.78;;;-8.19;55.67
71948;BME280;63257;55.082;38.772;2023-02-21T07:08:01;97496.88;;;-8.12;55.34
71948;BME280;63257;55.082;38.772;2023-02-21T07:10:36;97502.84;;;-8.12;56.01
71948;BME280;63257;55.082;38.772;2023-02-21T07:13:07;97496.19;;;-8.22;55.93
71948;BME280;63257;55.082;38.772;2023-02-21T07:15:33;97507.88;;;-8.07;56.27
71948;BME280;63257;55.082;38.772;2023-02-21T07:17:59;97503.53;;;-8.02;56.37
71948;BME280;63257;55.082;38.772;2023-02-21T07:20:24;97503.13;;;-7.79;55.49
71948;BME280;63257;55.082;38.772;2023-02-21T07:22:52;97503.00;;;-7.74;55.09
71948;BME280;63257;55.082;38.772;2023-02-21T07:25:20;97500.59;;;-7.82;54.44
71948;BME280;63257;55.082;38.772;2023-02-21T07:27:47;97493.91;;;-7.89;54.99
71948;BME280;63257;55.082;38.772;2023-02-21T07:30:14;97502.63;;;-7.99;54.44
71948;BME280;63257;55.082;38.772;2023-02-21T07:37:11;97513.34;;;-7.35;54.45
71948;BME280;63257;55.082;38.772;2023-02-21T07:39:37;97501.78;;;-7.12;53.21
71948;BME280;63257;55.082;38.772;2023-02-21T07:42:12;97509.31;;;-7.05;53.72
71948;BME280;63257;55.082;38.772;2023-02-21T07:44:44;97503.78;;;-7.27;52.90
71948;BME280;63257;55.082;38.772;2023-02-21T07:47:10;97508.94;;;-7.28;52.89
71948;BME280;63257;55.082;38.772;2023-02-21T07:49:40;97506.19;;;-7.19;53.20
71948;BME280;63257;55.082;38.772;2023-02-21T07:52:06;97507.66;;;-7.50;52.73
71948;BME280;63257;55.082;38.772;2023-02-21T07:54:33;97504.91;;;-7.40;53.58
71948;BME280;63257;55.082;38.772;2023-02-21T07:56:58;97511.84;;;-7.45;53.14
71948;BME280;63257;55.082;38.772;2023-02-21T07:59:24;97500.88;;;-7.10;53.12
71948;BME280;63257;55.082;38.772;2023-02-21T08:01:50;97511.31;;;-7.19;53.81
71948;BME280;63257;55.082;38.772;2023-02-21T08:04:16;97500.75;;;-7.46;53.44
71948;BME280;63257;55.082;38.772;2023-02-21T08:06:46;97498.78;;;-7.33;53.11
71948;BME280;63257;55.082;38.772;2023-02-21T08:09:14;97503.25;;;-7.01;52.95
71948;BME280;63257;55.082;38.772;2023-02-21T08:11:39;97505.50;;;-6.87;51.69
71948;BME280;63257;55.082;38.772;2023-02-21T08:14:05;97508.81;;;-7.64;53.15
71948;BME280;63257;55.082;38.772;2023-02-21T08:16:32;97494.44;;;-7.72;53.83
71948;BME280;63257;55.082;38.772;2023-02-21T08:18:58;97511.47;;;-7.25;52.88
71948;BME280;63257;55.082;38.772;2023-02-21T08:21:24;97507.63;;;-7.06;52.55
71948;BME280;63257;55.082;38.772;2023-02-21T08:23:53;97520.00;;;-7.26;51.86
71948;BME280;63257;55.082;38.772;2023-02-21T08:26:20;97513.84;;;-7.61;52.61
71948;BME280;63257;55.082;38.772;2023-02-21T08:28:46;97520.41;;;-7.92;53.56
71948;BME280;63257;55.082;38.772;2023-02-21T08:31:12;97512.69;;;-7.90;53.54
71948;BME280;63257;55.082;38.772;2023-02-21T08:33:38;97518.78;;;-7.96;53.15
71948;BME280;63257;55.082;38.772;2023-02-21T08:36:05;97516.88;;;-7.86;53.52
71948;BME280;63257;55.082;38.772;2023-02-21T08:38:31;97505.47;;;-8.16;53.82
71948;BME280;63257;55.082;38.772;2023-02-21T08:40:57;97512.69;;;-8.39;54.27
71948;BME280;63257;55.082;38.772;2023-02-21T08:43:24;97504.94;;;-7.86;53.70
71948;BME280;63257;55.082;38.772;2023-02-21T08:45:50;97501.00;;;-7.60;53.12
71948;BME280;63257;55.082;38.772;2023-02-21T08:48:16;97472.34;;;-7.77;52.77
71948;BME280;63257;55.082;38.772;2023-02-21T08:50:41;97493.50;;;-7.68;52.50
71948;BME280;63257;55.082;38.772;2023-02-21T08:53:10;97497.28;;;-7.87;51.86
71948;BME280;63257;55.082;38.772;2023-02-21T08:55:36;97473.59;;;-8.00;51.50
71948;BME280;63257;55.082;38.772;2023-02-21T08:58:02;97504.03;;;-7.83;52.31
71948;BME280;63257;55.082;38.772;2023-02-21T09:00:27;97487.13;;;-7.92;51.54
71948;BME280;63257;55.082;38.772;2023-02-21T09:02:54;97481.59;;;-8.17;51.98
71948;BME280;63257;55.082;38.772;2023-02-21T09:05:24;97504.88;;;-7.82;51.40
71948;BME280;63257;55.082;38.772;2023-02-21T09:07:52;97503.81;;;-7.72;50.93
71948;BME280;63257;55.082;38.772;2023-02-21T09:10:28;97502.88;;;-8.15;51.60
71948;BME280;63257;55.082;38.772;2023-02-21T09:12:54;97503.34;;;-8.41;51.75
71948;BME280;63257;55.082;38.772;2023-02-21T09:15:20;97478.38;;;-8.78;51.78
71948;BME280;63257;55.082;38.772;2023-02-21T09:17:46;97511.22;;;-8.52;52.08
71948;BME280;63257;55.082;38.772;2023-02-21T09:20:20;97512.81;;;-8.46;52.01
71948;BME280;63257;55.082;38.772;2023-02-21T09:22:46;97486.47;;;-8.03;51.42
71948;BME280;63257;55.082;38.772;2023-02-21T09:25:14;97494.63;;;-8.29;51.01
71948;BME280;63257;55.082;38.772;2023-02-21T09:27:40;97498.72;;;-8.21;50.59
71948;BME280;63257;55.082;38.772;2023-02-21T09:30:13;97507.81;;;-8.53;51.49
71948;BME280;63257;55.082;38.772;2023-02-21T09:32:40;97508.72;;;-8.57;52.52
71948;BME280;63257;55.082;38.772;2023-02-21T09:35:07;97508.09;;;-8.71;52.43
71948;BME280;63257;55.082;38.772;2023-02-21T09:37:37;97509.19;;;-8.86;53.05
71948;BME280;63257;55.082;38.772;2023-02-21T09:40:06;97510.72;;;-8.76;53.07
71948;BME280;63257;55.082;38.772;2023-02-21T09:42:34;97514.00;;;-8.67;53.09
71948;BME280;63257;55.082;38.772;2023-02-21T09:45:01;97503.59;;;-8.55;52.81
71948;BME280;63257;55.082;38.772;2023-02-21T09:47:29;97488.78;;;-8.38;52.35
71948;BME280;63257;55.082;38.772;2023-02-21T09:50:02;97511.38;;;-8.11;52.20
71948;BME280;63257;55.082;38.772;2023-02-21T09:52:35;97504.41;;;-8.51;52.22
71948;BME280;63257;55.082;38.772;2023-02-21T09:55:28;97494.47;;;-8.20;52.39
71948;BME280;63257;55.082;38.772;2023-02-21T09:57:55;97505.25;;;-8.04;52.01
71948;BME280;63257;55.082;38.772;2023-02-21T10:00:24;97505.84;;;-8.38;51.73
71948;BME280;63257;55.082;38.772;2023-02-21T10:08:04;97510.38;;;-8.04;51.97
71948;BME280;63257;55.082;38.772;2023-02-21T10:10:46;97507.56;;;-7.90;51.90
71948;BME280;63257;55.082;38.772;2023-02-21T10:16:12;97496.22;;;-7.77;50.64
71948;BME280;63257;55.082;38.772;2023-02-21T10:18:51;97514.13;;;-7.75;51.02
71948;BME280;63257;55.082;38.772;2023-02-21T10:21:32;97504.22;;;-7.48;50.81
71948;BME280;63257;55.082;38.772;2023-02-21T10:24:01;97506.84;;;-7.52;50.16
71948;BME280;63257;55.082;38.772;2023-02-21T10:26:34;97509.19;;;-7.41;50.00
71948;BME280;63257;55.082;38.772;2023-02-21T10:29:04;97493.59;;;-7.30;49.90
71948;BME280;63257;55.082;38.772;2023-02-21T10:31:36;97512.56;;;-7.82;50.76
71948;BME280;63257;55.082;38.772;2023-02-21T10:34:05;97517.66;;;-7.81;51.50
71948;BME280;63257;55.082;38.772;2023-02-21T10:36:33;97498.88;;;-7.81;51.91
71948;BME280;63257;55.082;38.772;2023-02-21T10:41:29;97526.13;;;-7.32;51.97
71948;BME280;63257;55.082;38.772;2023-02-21T10:44:02;97530.22;;;-7.69;51.38
71948;BME280;63257;55.082;38.772;2023-02-21T10:46:33;97524.44;;;-7.78;51.76
71948;BME280;63257;55.082;38.772;2023-02-21T10:54:33;97533.31;;;-7.51;51.26
71948;BME280;63257;55.082;38.772;2023-02-21T10:56:59;97526.88;;;-7.28;51.21
71948;BME280;63257;55.082;38.772;2023-02-21T10:59:34;97540.88;;;-7.45;50.99
71948;BME280;63257;55.082;38.772;2023-02-21T11:02:02;97541.56;;;-7.37;50.74
71948;BME280;63257;55.082;38.772;2023-02-21T11:04:31;97540.00;;;-7.44;50.23
71948;BME280;63257;55.082;38.772;2023-02-21T11:07:07;97537.81;;;-7.64;50.92
71948;BME280;63257;55.082;38.772;2023-02-21T11:09:41;97552.97;;;-8.00;50.93
71948;BME280;63257;55.082;38.772;2023-02-21T11:12:26;97555.47;;;-7.95;51.35
71948;BME280;63257;55.082;38.772;2023-02-21T11:17:27;97552.16;;;-8.01;52.16
71948;BME280;63257;55.082;38.772;2023-02-21T11:22:41;97564.72;;;-8.40;52.34
71948;BME280;63257;55.082;38.772;2023-02-21T11:25:29;97561.81;;;-8.18;52.50
71948;BME280;63257;55.082;38.772;2023-02-21T11:28:06;97521.00;;;-8.27;51.97
71948;BME280;63257;55.082;38.772;2023-02-21T11:33:26;97532.50;;;-8.50;52.57
71948;BME280;63257;55.082;38.772;2023-02-21T11:36:07;97569.19;;;-7.98;52.15
71948;BME280;63257;55.082;38.772;2023-02-21T11:38:37;97569.56;;;-8.21;51.59
71948;BME280;63257;55.082;38.772;2023-02-21T11:43:46;97549.41;;;-8.43;52.61
71948;BME280;63257;55.082;38.772;2023-02-21T11:49:19;97578.06;;;-8.21;51.91
71948;BME280;63257;55.082;38.772;2023-02-21T11:54:18;97594.06;;;-8.61;52.11
71948;BME280;63257;55.082;38.772;2023-02-21T12:00:07;97589.97;;;-7.67;50.28
71948;BME280;63257;55.082;38.772;2023-02-21T12:02:51;97592.50;;;-7.65;50.63
71948;BME280;63257;55.082;38.772;2023-02-21T12:08:31;97597.63;;;-7.65;50.02
71948;BME280;63257;55.082;38.772;2023-02-21T12:19:15;97619.34;;;-6.92;48.47
71948;BME280;63257;55.082;38.772;2023-02-21T12:27:04;97630.50;;;-6.54;47.93
71948;BME280;63257;55.082;38.772;2023-02-21T12:30:02;97622.28;;;-6.70;47.12
71948;BME280;63257;55.082;38.772;2023-02-21T12:38:13;97631.47;;;-7.02;47.73
71948;BME280;63257;55.082;38.772;2023-02-21T12:51:40;97655.81;;;-7.23;47.68
71948;BME280;63257;55.082;38.772;2023-02-21T12:54:14;97666.13;;;-7.26;47.57
71948;BME280;63257;55.082;38.772;2023-02-21T12:56:48;97666.06;;;-7.23;47.56
71948;BME280;63257;55.082;38.772;2023-02-21T12:59:22;97673.06;;;-6.86;47.57
71948;BME280;63257;55.082;38.772;2023-02-21T13:02:32;97673.69;;;-7.20;47.03
71948;BME280;63257;55.082;38.772;2023-02-21T13:05:13;97669.81;;;-6.94;47.71
71948;BME280;63257;55.082;38.772;2023-02-21T13:12:56;97691.59;;;-6.72;47.37
71948;BME280;63257;55.082;38.772;2023-02-21T13:15:28;97707.38;;;-6.92;46.84
71948;BME280;63257;55.082;38.772;2023-02-21T13:18:01;97700.47;;;-6.88;47.17
71948;BME280;63257;55.082;38.772;2023-02-21T13:20:36;97706.59;;;-6.97;46.38
71948;BME280;63257;55.082;38.772;2023-02-21T13:23:05;97704.41;;;-7.16;46.94
71948;BME280;63257;55.082;38.772;2023-02-21T13:28:29;97713.72;;;-7.11;47.56
71948;BME280;63257;55.082;38.772;2023-02-21T13:31:04;97712.22;;;-7.23;47.61
71948;BME280;63257;55.082;38.772;2023-02-21T13:33:40;97716.19;;;-7.55;47.65
71948;BME280;63257;55.082;38.772;2023-02-21T13:39:19;97731.19;;;-7.87;49.17
71948;BME280;63257;55.082;38.772;2023-02-21T13:41:57;97733.06;;;-7.99;49.53
71948;BME280;63257;55.082;38.772;2023-02-21T13:44:33;97741.56;;;-8.63;50.81
71948;BME280;63257;55.082;38.772;2023-02-21T13:47:03;97728.44;;;-9.05;51.97
71948;BME280;63257;55.082;38.772;2023-02-21T13:55:24;97752.09;;;-8.89;53.02
71948;BME280;63257;55.082;38.772;2023-02-21T14:10:58;97781.69;;;-9.58;55.03
71948;BME280;63257;55.082;38.772;2023-02-21T14:16:08;97786.84;;;-9.67;55.09
71948;BME280;63257;55.082;38.772;2023-02-21T14:21:14;97802.28;;;-9.84;55.61
71948;BME280;63257;55.082;38.772;2023-02-21T14:23:50;97802.34;;;-9.94;55.81
71948;BME280;63257;55.082;38.772;2023-02-21T14:29:14;97810.97;;;-10.16;57.06
71948;BME280;63257;55.082;38.772;2023-02-21T14:34:20;97822.84;;;-10.09;57.97
71948;BME280;63257;55.082;38.772;2023-02-21T14:36:48;97805.06;;;-10.26;58.04
71948;BME280;63257;55.082;38.772;2023-02-21T14:39:16;97827.16;;;-10.25;58.00
71948;BME280;63257;55.082;38.772;2023-02-21T14:42:04;97832.28;;;-10.31;58.62
71948;BME280;63257;55.082;38.772;2023-02-21T14:56:33;97876.59;;;-10.60;59.43
71948;BME280;63257;55.082;38.772;2023-02-21T15:04:25;97878.34;;;-10.96;59.09
71948;BME280;63257;55.082;38.772;2023-02-21T15:07:25;97890.22;;;-10.84;59.80
71948;BME280;63257;55.082;38.772;2023-02-21T15:10:16;97891.09;;;-10.92;60.28
71948;BME280;63257;55.082;38.772;2023-02-21T15:12:48;97886.00;;;-11.05;60.18
71948;BME280;63257;55.082;38.772;2023-02-21T15:15:21;97891.94;;;-10.93;60.80
71948;BME280;63257;55.082;38.772;2023-02-21T15:18:07;97908.94;;;-11.04;60.36
71948;BME280;63257;55.082;38.772;2023-02-21T15:20:38;97914.03;;;-11.09;60.86
71948;BME280;63257;55.082;38.772;2023-02-21T15:23:15;97898.72;;;-11.32;61.29
71948;BME280;63257;55.082;38.772;2023-02-21T15:25:52;97920.81;;;-11.14;61.02
71948;BME280;63257;55.082;38.772;2023-02-21T15:31:05;97922.47;;;-11.28;61.18
71948;BME280;63257;55.082;38.772;2023-02-21T15:33:34;97918.22;;;-11.34;61.13
71948;BME280;63257;55.082;38.772;2023-02-21T15:36:17;97907.22;;;-11.37;61.11
71948;BME280;63257;55.082;38.772;2023-02-21T15:38:50;97937.75;;;-11.28;61.16
71948;BME280;63257;55.082;38.772;2023-02-21T15:43:49;97947.94;;;-11.37;60.74
71948;BME280;63257;55.082;38.772;2023-02-21T15:46:31;97952.19;;;-11.29;60.75
71948;BME280;63257;55.082;38.772;2023-02-21T15:49:02;97954.69;;;-11.49;60.44
71948;BME280;63257;55.082;38.772;2023-02-21T15:51:29;97957.19;;;-11.69;60.25
71948;BME280;63257;55.082;38.772;2023-02-21T15:56:41;97947.78;;;-11.85;59.87
71948;BME280;63257;55.082;38.772;2023-02-21T15:59:18;97964.78;;;-11.77;60.39
71948;BME280;63257;55.082;38.772;2023-02-21T16:04:38;97966.44;;;-11.94;60.11
71948;BME280;63257;55.082;38.772;2023-02-21T16:07:06;97988.50;;;-11.85;60.52
71948;BME280;63257;55.082;38.772;2023-02-21T16:09:33;97990.19;;;-11.90;60.34
71948;BME280;63257;55.082;38.772;2023-02-21T16:12:25;97970.63;;;-12.07;60.29
71948;BME280;63257;55.082;38.772;2023-02-21T16:14:57;97997.81;;;-11.90;60.78